sensor_id;sensor_type;location;lat;lon;timestamp;P1;durP1;ratioP1;P2;durP2;ratioP2
35074;SDS011;21260;34.984;32.490;2023-04-22T00:01:57;5.60;;;3.88;;
35074;SDS011;21260;34.984;32.490;2023-04-22T00:04:24;4.72;;;3.92;;
35074;SDS011;21260;34.984;32.490;2023-04-22T00:06:50;4.47;;;3.72;;
35074;SDS011;21260;34.984;32.490;2023-04-22T00:09:16;7.00;;;3.90;;
35074;SDS011;21260;34.984;32.490;2023-04-22T00:11:42;5.05;;;4.03;;
35074;SDS011;21260;34.984;32.490;2023-04-22T00:14:09;4.53;;;3.72;;
35074;SDS011;21260;34.984;32.490;2023-04-22T00:16:35;4.70;;;3.60;;
35074;SDS011;21260;34.984;32.490;2023-04-22T00:19:01;4.80;;;3.72;;
35074;SDS011;21260;34.984;32.490;2023-04-22T00:21:29;5.75;;;4.18;;
35074;SDS011;21260;34.984;32.490;2023-04-22T00:23:55;4.03;;;3.60;;
35074;SDS011;21260;34.984;32.490;2023-04-22T00:26:21;5.32;;;3.83;;
35074;SDS011;21260;34.984;32.490;2023-04-22T00:28:47;4.28;;;3.53;;
35074;SDS011;21260;34.984;32.490;2023-04-22T00:31:13;4.80;;;3.90;;
35074;SDS011;21260;34.984;32.490;2023-04-22T00:33:40;6.32;;;3.63;;
35074;SDS011;21260;34.984;32.490;2023-04-22T00:36:06;5.32;;;3.65;;
35074;SDS011;21260;34.984;32.490;2023-04-22T00:38:32;4.28;;;3.63;;
35074;SDS011;21260;34.984;32.490;2023-04-22T00:40:59;4.93;;;3.90;;
35074;SDS011;21260;34.984;32.490;2023-04-22T00:43:26;5.68;;;3.90;;
35074;SDS011;21260;34.984;32.490;2023-04-22T00:45:52;4.18;;;3.53;;
35074;SDS011;21260;34.984;32.490;2023-04-22T00:48:20;5.57;;;3.75;;
35074;SDS011;21260;34.984;32.490;2023-04-22T00:50:49;5.35;;;3.60;;
35074;SDS011;21260;34.984;32.490;2023-04-22T00:53:15;3.85;;;3.45;;
35074;SDS011;21260;34.984;32.490;2023-04-22T00:55:41;4.60;;;3.58;;
35074;SDS011;21260;34.984;32.490;2023-04-22T00:58:07;3.63;;;3.15;;
35074;SDS011;21260;34.984;32.490;2023-04-22T01:00:35;3.78;;;3.17;;
35074;SDS011;21260;34.984;32.490;2023-04-22T01:03:01;4.63;;;3.50;;
35074;SDS011;21260;34.984;32.490;2023-04-22T01:05:31;6.07;;;3.08;;
35074;SDS011;21260;34.984;32.490;2023-04-22T01:07:58;3.38;;;3.08;;
35074;SDS011;21260;34.984;32.490;2023-04-22T01:10:25;5.65;;;3.30;;
35074;SDS011;21260;34.984;32.490;2023-04-22T01:12:52;3.90;;;3.07;;
35074;SDS011;21260;34.984;32.490;2023-04-22T01:15:18;4.30;;;3.35;;
35074;SDS011;21260;34.984;32.490;2023-04-22T01:17:44;4.07;;;3.13;;
35074;SDS011;21260;34.984;32.490;2023-04-22T01:20:12;4.65;;;3.05;;
35074;SDS011;21260;34.984;32.490;2023-04-22T01:22:40;4.00;;;3.20;;
35074;SDS011;21260;34.984;32.490;2023-04-22T01:25:10;4.05;;;3.13;;
35074;SDS011;21260;34.984;32.490;2023-04-22T01:27:37;4.43;;;3.25;;
35074;SDS011;21260;34.984;32.490;2023-04-22T01:30:05;4.22;;;3.03;;
35074;SDS011;21260;34.984;32.490;2023-04-22T01:32:33;3.33;;;3.00;;
35074;SDS011;21260;34.984;32.490;2023-04-22T01:35:00;3.78;;;2.90;;
35074;SDS011;21260;34.984;32.490;2023-04-22T01:37:27;3.45;;;2.83;;
35074;SDS011;21260;34.984;32.490;2023-04-22T01:39:54;3.75;;;2.80;;
35074;SDS011;21260;34.984;32.490;2023-04-22T01:42:23;3.72;;;2.53;;
35074;SDS011;21260;34.984;32.490;2023-04-22T01:44:50;3.03;;;2.50;;
35074;SDS011;21260;34.984;32.490;2023-04-22T01:47:17;3.40;;;2.30;;
35074;SDS011;21260;34.984;32.490;2023-04-22T01:49:45;3.88;;;2.40;;
35074;SDS011;21260;34.984;32.490;2023-04-22T01:52:11;2.90;;;2.25;;
35074;SDS011;21260;34.984;32.490;2023-04-22T01:54:38;2.80;;;2.47;;
35074;SDS011;21260;34.984;32.490;2023-04-22T01:57:09;3.92;;;2.58;;
35074;SDS011;21260;34.984;32.490;2023-04-22T01:59:38;3.00;;;2.42;;
35074;SDS011;21260;34.984;32.490;2023-04-22T02:02:05;2.65;;;2.45;;
35074;SDS011;21260;34.984;32.490;2023-04-22T02:04:31;3.05;;;2.70;;
35074;SDS011;21260;34.984;32.490;2023-04-22T02:06:57;3.00;;;2.70;;
35074;SDS011;21260;34.984;32.490;2023-04-22T02:09:25;3.80;;;3.00;;
35074;SDS011;21260;34.984;32.490;2023-04-22T02:11:51;3.90;;;2.80;;
35074;SDS011;21260;34.984;32.490;2023-04-22T02:14:17;3.47;;;2.80;;
35074;SDS011;21260;34.984;32.490;2023-04-22T02:16:44;4.10;;;3.33;;
35074;SDS011;21260;34.984;32.490;2023-04-22T02:19:10;3.38;;;3.08;;
35074;SDS011;21260;34.984;32.490;2023-04-22T02:21:36;3.42;;;2.83;;
35074;SDS011;21260;34.984;32.490;2023-04-22T02:24:02;3.67;;;2.60;;
35074;SDS011;21260;34.984;32.490;2023-04-22T02:26:29;3.95;;;2.80;;
35074;SDS011;21260;34.984;32.490;2023-04-22T02:28:55;3.55;;;2.70;;
35074;SDS011;21260;34.984;32.490;2023-04-22T02:31:21;3.10;;;2.40;;
35074;SDS011;21260;34.984;32.490;2023-04-22T02:33:47;3.35;;;2.45;;
35074;SDS011;21260;34.984;32.490;2023-04-22T02:36:14;3.20;;;2.40;;
35074;SDS011;21260;34.984;32.490;2023-04-22T02:38:40;3.23;;;2.70;;
35074;SDS011;21260;34.984;32.490;2023-04-22T02:41:06;3.70;;;2.50;;
35074;SDS011;21260;34.984;32.490;2023-04-22T02:43:32;3.38;;;2.50;;
35074;SDS011;21260;34.984;32.490;2023-04-22T02:45:58;3.00;;;2.40;;
35074;SDS011;21260;34.984;32.490;2023-04-22T02:48:25;3.15;;;2.53;;
35074;SDS011;21260;34.984;32.490;2023-04-22T02:50:51;3.67;;;2.85;;
35074;SDS011;21260;34.984;32.490;2023-04-22T02:53:17;3.47;;;2.78;;
35074;SDS011;21260;34.984;32.490;2023-04-22T02:55:43;3.17;;;2.40;;
35074;SDS011;21260;34.984;32.490;2023-04-22T02:58:10;3.78;;;2.50;;
35074;SDS011;21260;34.984;32.490;2023-04-22T03:00:36;3.10;;;2.47;;
35074;SDS011;21260;34.984;32.490;2023-04-22T03:03:02;3.57;;;2.77;;
35074;SDS011;21260;34.984;32.490;2023-04-22T03:05:28;3.63;;;2.70;;
35074;SDS011;21260;34.984;32.490;2023-04-22T03:07:54;2.80;;;2.50;;
35074;SDS011;21260;34.984;32.490;2023-04-22T03:10:21;3.17;;;2.63;;
35074;SDS011;21260;34.984;32.490;2023-04-22T03:12:47;5.05;;;2.70;;
35074;SDS011;21260;34.984;32.490;2023-04-22T03:15:14;3.20;;;2.50;;
35074;SDS011;21260;34.984;32.490;2023-04-22T03:17:40;2.60;;;2.40;;
35074;SDS011;21260;34.984;32.490;2023-04-22T03:20:06;3.20;;;2.75;;
35074;SDS011;21260;34.984;32.490;2023-04-22T03:22:33;3.13;;;2.55;;
35074;SDS011;21260;34.984;32.490;2023-04-22T03:24:59;3.75;;;2.60;;
35074;SDS011;21260;34.984;32.490;2023-04-22T03:27:25;2.95;;;2.40;;
35074;SDS011;21260;34.984;32.490;2023-04-22T03:29:51;2.60;;;2.40;;
35074;SDS011;21260;34.984;32.490;2023-04-22T03:32:18;4.22;;;2.55;;
35074;SDS011;21260;34.984;32.490;2023-04-22T03:34:44;2.97;;;2.40;;
35074;SDS011;21260;34.984;32.490;2023-04-22T03:37:10;2.78;;;2.35;;
35074;SDS011;21260;34.984;32.490;2023-04-22T03:39:36;3.78;;;2.50;;
35074;SDS011;21260;34.984;32.490;2023-04-22T03:42:03;2.43;;;2.20;;
35074;SDS011;21260;34.984;32.490;2023-04-22T03:44:29;3.75;;;2.75;;
35074;SDS011;21260;34.984;32.490;2023-04-22T03:46:55;2.90;;;2.60;;
35074;SDS011;21260;34.984;32.490;2023-04-22T03:49:21;4.90;;;3.07;;
35074;SDS011;21260;34.984;32.490;2023-04-22T03:51:47;3.60;;;3.25;;
35074;SDS011;21260;34.984;32.490;2023-04-22T03:54:14;4.13;;;3.38;;
35074;SDS011;21260;34.984;32.490;2023-04-22T03:56:40;4.18;;;3.08;;
35074;SDS011;21260;34.984;32.490;2023-04-22T03:59:06;4.97;;;3.20;;
35074;SDS011;21260;34.984;32.490;2023-04-22T04:01:32;3.97;;;3.35;;
35074;SDS011;21260;34.984;32.490;2023-04-22T04:04:00;4.53;;;3.13;;
35074;SDS011;21260;34.984;32.490;2023-04-22T04:06:26;3.55;;;3.13;;
35074;SDS011;21260;34.984;32.490;2023-04-22T04:08:53;4.70;;;3.40;;
35074;SDS011;21260;34.984;32.490;2023-04-22T04:11:19;3.72;;;3.10;;
35074;SDS011;21260;34.984;32.490;2023-04-22T04:13:45;3.40;;;3.08;;
35074;SDS011;21260;34.984;32.490;2023-04-22T04:16:11;3.77;;;3.10;;
35074;SDS011;21260;34.984;32.490;2023-04-22T04:18:38;3.35;;;2.70;;
35074;SDS011;21260;34.984;32.490;2023-04-22T04:21:04;3.58;;;2.67;;
35074;SDS011;21260;34.984;32.490;2023-04-22T04:23:30;4.30;;;2.90;;
35074;SDS011;21260;34.984;32.490;2023-04-22T04:25:56;3.70;;;2.92;;
35074;SDS011;21260;34.984;32.490;2023-04-22T04:28:27;4.10;;;2.63;;
35074;SDS011;21260;34.984;32.490;2023-04-22T04:30:58;3.78;;;2.80;;
35074;SDS011;21260;34.984;32.490;2023-04-22T04:33:27;4.93;;;2.70;;
35074;SDS011;21260;34.984;32.490;2023-04-22T04:35:55;4.68;;;2.72;;
35074;SDS011;21260;34.984;32.490;2023-04-22T04:38:24;3.75;;;3.00;;
35074;SDS011;21260;34.984;32.490;2023-04-22T04:40:51;4.72;;;2.70;;
35074;SDS011;21260;34.984;32.490;2023-04-22T04:43:18;3.72;;;2.45;;
35074;SDS011;21260;34.984;32.490;2023-04-22T04:45:45;3.53;;;2.50;;
35074;SDS011;21260;34.984;32.490;2023-04-22T04:48:12;3.00;;;2.40;;
35074;SDS011;21260;34.984;32.490;2023-04-22T04:50:42;3.47;;;2.60;;
35074;SDS011;21260;34.984;32.490;2023-04-22T04:53:09;3.10;;;2.50;;
35074;SDS011;21260;34.984;32.490;2023-04-22T04:55:36;4.07;;;2.90;;
35074;SDS011;21260;34.984;32.490;2023-04-22T04:58:02;5.07;;;3.00;;
35074;SDS011;21260;34.984;32.490;2023-04-22T05:00:29;4.30;;;3.07;;
35074;SDS011;21260;34.984;32.490;2023-04-22T05:02:55;3.40;;;2.67;;
35074;SDS011;21260;34.984;32.490;2023-04-22T05:05:21;4.10;;;2.70;;
35074;SDS011;21260;34.984;32.490;2023-04-22T05:07:48;3.63;;;2.83;;
35074;SDS011;21260;34.984;32.490;2023-04-22T05:10:15;5.93;;;3.22;;
35074;SDS011;21260;34.984;32.490;2023-04-22T05:12:41;4.82;;;3.00;;
35074;SDS011;21260;34.984;32.490;2023-04-22T05:15:10;3.92;;;2.97;;
35074;SDS011;21260;34.984;32.490;2023-04-22T05:17:36;3.22;;;2.70;;
35074;SDS011;21260;34.984;32.490;2023-04-22T05:20:02;5.25;;;3.20;;
35074;SDS011;21260;34.984;32.490;2023-04-22T05:22:29;5.20;;;3.30;;
35074;SDS011;21260;34.984;32.490;2023-04-22T05:24:55;4.40;;;3.17;;
35074;SDS011;21260;34.984;32.490;2023-04-22T05:27:22;4.20;;;3.00;;
35074;SDS011;21260;34.984;32.490;2023-04-22T05:29:48;3.30;;;2.95;;
35074;SDS011;21260;34.984;32.490;2023-04-22T05:32:15;4.10;;;2.90;;
35074;SDS011;21260;34.984;32.490;2023-04-22T05:34:41;3.75;;;2.85;;
35074;SDS011;21260;34.984;32.490;2023-04-22T05:37:07;4.07;;;2.90;;
35074;SDS011;21260;34.984;32.490;2023-04-22T05:39:35;4.83;;;2.70;;
35074;SDS011;21260;34.984;32.490;2023-04-22T05:42:01;4.72;;;2.75;;
35074;SDS011;21260;34.984;32.490;2023-04-22T05:44:27;3.92;;;2.78;;
35074;SDS011;21260;34.984;32.490;2023-04-22T05:46:53;3.72;;;2.90;;
35074;SDS011;21260;34.984;32.490;2023-04-22T05:49:20;3.30;;;2.90;;
35074;SDS011;21260;34.984;32.490;2023-04-22T05:51:46;4.20;;;2.80;;
35074;SDS011;21260;34.984;32.490;2023-04-22T05:54:12;4.85;;;2.97;;
35074;SDS011;21260;34.984;32.490;2023-04-22T05:56:39;4.35;;;3.00;;
35074;SDS011;21260;34.984;32.490;2023-04-22T05:59:05;4.60;;;3.30;;
35074;SDS011;21260;34.984;32.490;2023-04-22T06:01:31;4.32;;;3.10;;
35074;SDS011;21260;34.984;32.490;2023-04-22T06:03:58;3.83;;;3.10;;
35074;SDS011;21260;34.984;32.490;2023-04-22T06:06:24;5.67;;;3.20;;
35074;SDS011;21260;34.984;32.490;2023-04-22T06:08:51;5.10;;;3.30;;
35074;SDS011;21260;34.984;32.490;2023-04-22T06:11:17;4.88;;;2.85;;
35074;SDS011;21260;34.984;32.490;2023-04-22T06:13:44;6.03;;;2.90;;
35074;SDS011;21260;34.984;32.490;2023-04-22T06:16:10;4.75;;;2.75;;
35074;SDS011;21260;34.984;32.490;2023-04-22T06:18:36;4.35;;;2.95;;
35074;SDS011;21260;34.984;32.490;2023-04-22T06:21:02;5.75;;;3.30;;
35074;SDS011;21260;34.984;32.490;2023-04-22T06:23:29;4.82;;;3.10;;
35074;SDS011;21260;34.984;32.490;2023-04-22T06:25:55;5.82;;;3.35;;
35074;SDS011;21260;34.984;32.490;2023-04-22T06:28:22;5.13;;;3.20;;
35074;SDS011;21260;34.984;32.490;2023-04-22T06:30:49;6.65;;;3.60;;
35074;SDS011;21260;34.984;32.490;2023-04-22T06:33:15;6.22;;;3.60;;
35074;SDS011;21260;34.984;32.490;2023-04-22T06:35:41;4.35;;;3.15;;
35074;SDS011;21260;34.984;32.490;2023-04-22T06:38:07;6.82;;;3.70;;
35074;SDS011;21260;34.984;32.490;2023-04-22T06:40:33;5.07;;;3.40;;
35074;SDS011;21260;34.984;32.490;2023-04-22T06:43:00;4.03;;;3.38;;
35074;SDS011;21260;34.984;32.490;2023-04-22T06:45:26;6.65;;;3.80;;
35074;SDS011;21260;34.984;32.490;2023-04-22T06:47:53;4.88;;;3.35;;
35074;SDS011;21260;34.984;32.490;2023-04-22T06:50:19;5.57;;;3.60;;
35074;SDS011;21260;34.984;32.490;2023-04-22T06:52:45;6.15;;;3.58;;
35074;SDS011;21260;34.984;32.490;2023-04-22T06:55:12;5.60;;;3.33;;
35074;SDS011;21260;34.984;32.490;2023-04-22T06:57:38;7.93;;;3.72;;
35074;SDS011;21260;34.984;32.490;2023-04-22T07:00:05;5.68;;;3.30;;
35074;SDS011;21260;34.984;32.490;2023-04-22T07:02:33;8.20;;;3.72;;
35074;SDS011;21260;34.984;32.490;2023-04-22T07:04:59;7.40;;;3.60;;
35074;SDS011;21260;34.984;32.490;2023-04-22T07:07:26;5.10;;;3.63;;
35074;SDS011;21260;34.984;32.490;2023-04-22T07:09:52;7.45;;;3.63;;
35074;SDS011;21260;34.984;32.490;2023-04-22T07:12:18;8.52;;;3.70;;
35074;SDS011;21260;34.984;32.490;2023-04-22T07:14:44;5.32;;;3.47;;
35074;SDS011;21260;34.984;32.490;2023-04-22T07:17:13;5.95;;;3.60;;
35074;SDS011;21260;34.984;32.490;2023-04-22T07:19:43;4.65;;;3.40;;
35074;SDS011;21260;34.984;32.490;2023-04-22T07:22:09;7.85;;;3.70;;
35074;SDS011;21260;34.984;32.490;2023-04-22T07:24:35;5.38;;;3.30;;
35074;SDS011;21260;34.984;32.490;2023-04-22T07:27:02;4.83;;;3.57;;
35074;SDS011;21260;34.984;32.490;2023-04-22T07:29:29;9.55;;;3.42;;
35074;SDS011;21260;34.984;32.490;2023-04-22T07:31:55;5.63;;;3.25;;
35074;SDS011;21260;34.984;32.490;2023-04-22T07:34:21;6.17;;;3.23;;
35074;SDS011;21260;34.984;32.490;2023-04-22T07:36:49;5.32;;;3.25;;
35074;SDS011;21260;34.984;32.490;2023-04-22T07:39:18;5.85;;;3.25;;
35074;SDS011;21260;34.984;32.490;2023-04-22T07:41:46;8.00;;;3.60;;
35074;SDS011;21260;34.984;32.490;2023-04-22T07:44:12;6.18;;;3.30;;
35074;SDS011;21260;34.984;32.490;2023-04-22T07:46:42;5.22;;;2.97;;
35074;SDS011;21260;34.984;32.490;2023-04-22T07:49:08;4.63;;;3.08;;
35074;SDS011;21260;34.984;32.490;2023-04-22T07:51:38;6.18;;;3.47;;
35074;SDS011;21260;34.984;32.490;2023-04-22T07:54:05;7.63;;;3.90;;
35074;SDS011;21260;34.984;32.490;2023-04-22T07:56:32;6.65;;;3.67;;
35074;SDS011;21260;34.984;32.490;2023-04-22T07:58:58;8.73;;;3.90;;
35074;SDS011;21260;34.984;32.490;2023-04-22T08:01:25;7.28;;;3.72;;
35074;SDS011;21260;34.984;32.490;2023-04-22T08:03:51;8.15;;;4.00;;
35074;SDS011;21260;34.984;32.490;2023-04-22T08:06:17;5.38;;;3.60;;
35074;SDS011;21260;34.984;32.490;2023-04-22T08:08:43;7.97;;;3.78;;
35074;SDS011;21260;34.984;32.490;2023-04-22T08:11:10;6.35;;;3.63;;
35074;SDS011;21260;34.984;32.490;2023-04-22T08:13:37;9.35;;;3.90;;
35074;SDS011;21260;34.984;32.490;2023-04-22T08:16:04;7.40;;;3.80;;
35074;SDS011;21260;34.984;32.490;2023-04-22T08:18:31;5.90;;;3.40;;
35074;SDS011;21260;34.984;32.490;2023-04-22T08:20:57;5.70;;;3.45;;
35074;SDS011;21260;34.984;32.490;2023-04-22T08:23:24;7.97;;;3.30;;
35074;SDS011;21260;34.984;32.490;2023-04-22T08:25:50;5.07;;;3.20;;
35074;SDS011;21260;34.984;32.490;2023-04-22T08:28:17;8.38;;;3.97;;
35074;SDS011;21260;34.984;32.490;2023-04-22T08:30:43;4.63;;;3.17;;
35074;SDS011;21260;34.984;32.490;2023-04-22T08:33:09;6.97;;;3.38;;
35074;SDS011;21260;34.984;32.490;2023-04-22T08:35:36;6.25;;;3.58;;
35074;SDS011;21260;34.984;32.490;2023-04-22T08:38:03;6.18;;;3.45;;
35074;SDS011;21260;34.984;32.490;2023-04-22T08:40:30;6.07;;;3.60;;
35074;SDS011;21260;34.984;32.490;2023-04-22T08:42:56;7.07;;;3.40;;
35074;SDS011;21260;34.984;32.490;2023-04-22T08:45:22;4.70;;;3.00;;
35074;SDS011;21260;34.984;32.490;2023-04-22T08:47:49;6.72;;;3.15;;
35074;SDS011;21260;34.984;32.490;2023-04-22T08:50:20;4.47;;;3.10;;
35074;SDS011;21260;34.984;32.490;2023-04-22T08:52:46;6.18;;;3.00;;
35074;SDS011;21260;34.984;32.490;2023-04-22T08:55:13;5.97;;;3.10;;
35074;SDS011;21260;34.984;32.490;2023-04-22T08:57:39;5.00;;;3.00;;
35074;SDS011;21260;34.984;32.490;2023-04-22T09:00:06;6.47;;;2.88;;
35074;SDS011;21260;34.984;32.490;2023-04-22T09:02:33;4.43;;;3.00;;
35074;SDS011;21260;34.984;32.490;2023-04-22T09:05:04;6.30;;;3.03;;
35074;SDS011;21260;34.984;32.490;2023-04-22T09:07:31;7.13;;;3.10;;
35074;SDS011;21260;34.984;32.490;2023-04-22T09:09:57;4.43;;;3.00;;
35074;SDS011;21260;34.984;32.490;2023-04-22T09:12:24;4.68;;;2.75;;
35074;SDS011;21260;34.984;32.490;2023-04-22T09:14:51;7.23;;;2.97;;
35074;SDS011;21260;34.984;32.490;2023-04-22T09:17:28;6.40;;;3.00;;
35074;SDS011;21260;34.984;32.490;2023-04-22T09:20:04;5.05;;;3.30;;
35074;SDS011;21260;34.984;32.490;2023-04-22T09:22:44;4.25;;;2.70;;
35074;SDS011;21260;34.984;32.490;2023-04-22T09:25:16;4.97;;;2.70;;
35074;SDS011;21260;34.984;32.490;2023-04-22T09:27:48;6.80;;;2.90;;
35074;SDS011;21260;34.984;32.490;2023-04-22T09:30:28;6.00;;;3.30;;
35074;SDS011;21260;34.984;32.490;2023-04-22T09:32:58;5.25;;;3.10;;
35074;SDS011;21260;34.984;32.490;2023-04-22T09:35:28;6.22;;;3.10;;
35074;SDS011;21260;34.984;32.490;2023-04-22T09:37:58;5.25;;;3.00;;
35074;SDS011;21260;34.984;32.490;2023-04-22T09:40:27;6.35;;;3.10;;
35074;SDS011;21260;34.984;32.490;2023-04-22T09:42:55;4.40;;;2.90;;
35074;SDS011;21260;34.984;32.490;2023-04-22T09:45:26;6.97;;;3.10;;
35074;SDS011;21260;34.984;32.490;2023-04-22T09:47:55;6.07;;;2.97;;
35074;SDS011;21260;34.984;32.490;2023-04-22T09:50:45;5.93;;;3.20;;
35074;SDS011;21260;34.984;32.490;2023-04-22T09:53:15;4.45;;;2.65;;
35074;SDS011;21260;34.984;32.490;2023-04-22T09:55:45;5.22;;;2.90;;
35074;SDS011;21260;34.984;32.490;2023-04-22T09:58:18;6.57;;;3.03;;
35074;SDS011;21260;34.984;32.490;2023-04-22T10:00:54;6.38;;;3.30;;
35074;SDS011;21260;34.984;32.490;2023-04-22T10:03:27;4.10;;;2.72;;
35074;SDS011;21260;34.984;32.490;2023-04-22T10:05:53;4.80;;;2.90;;
35074;SDS011;21260;34.984;32.490;2023-04-22T10:08:20;6.23;;;3.00;;
35074;SDS011;21260;34.984;32.490;2023-04-22T10:10:46;4.38;;;3.15;;
35074;SDS011;21260;34.984;32.490;2023-04-22T10:13:12;5.25;;;3.20;;
35074;SDS011;21260;34.984;32.490;2023-04-22T10:15:43;7.97;;;3.20;;
35074;SDS011;21260;34.984;32.490;2023-04-22T10:18:18;4.82;;;2.90;;
35074;SDS011;21260;34.984;32.490;2023-04-22T10:20:55;4.35;;;2.88;;
35074;SDS011;21260;34.984;32.490;2023-04-22T10:23:23;7.75;;;3.30;;
35074;SDS011;21260;34.984;32.490;2023-04-22T10:25:54;5.30;;;3.03;;
35074;SDS011;21260;34.984;32.490;2023-04-22T10:28:22;5.25;;;3.40;;
35074;SDS011;21260;34.984;32.490;2023-04-22T10:30:53;6.18;;;3.10;;
35074;SDS011;21260;34.984;32.490;2023-04-22T10:41:27;5.82;;;3.30;;
35074;SDS011;21260;34.984;32.490;2023-04-22T10:44:06;6.90;;;3.15;;
35074;SDS011;21260;34.984;32.490;2023-04-22T10:49:11;5.50;;;3.00;;
35074;SDS011;21260;34.984;32.490;2023-04-22T10:59:41;3.65;;;2.80;;
35074;SDS011;21260;34.984;32.490;2023-04-22T11:02:12;3.88;;;2.70;;
35074;SDS011;21260;34.984;32.490;2023-04-22T11:04:40;4.18;;;2.70;;
35074;SDS011;21260;34.984;32.490;2023-04-22T11:15:10;6.97;;;3.10;;
35074;SDS011;21260;34.984;32.490;2023-04-22T11:17:42;5.30;;;3.03;;
35074;SDS011;21260;34.984;32.490;2023-04-22T11:20:12;4.47;;;3.00;;
35074;SDS011;21260;34.984;32.490;2023-04-22T11:22:43;8.30;;;3.30;;
35074;SDS011;21260;34.984;32.490;2023-04-22T11:25:19;7.03;;;2.90;;
35074;SDS011;21260;34.984;32.490;2023-04-22T11:27:47;6.35;;;2.90;;
35074;SDS011;21260;34.984;32.490;2023-04-22T11:30:14;3.60;;;2.70;;
35074;SDS011;21260;34.984;32.490;2023-04-22T11:32:56;4.72;;;2.90;;
35074;SDS011;21260;34.984;32.490;2023-04-22T11:35:28;5.13;;;3.17;;
35074;SDS011;21260;34.984;32.490;2023-04-22T11:37:57;4.47;;;3.00;;
35074;SDS011;21260;34.984;32.490;2023-04-22T11:43:05;5.70;;;3.10;;
35074;SDS011;21260;34.984;32.490;2023-04-22T11:45:33;5.10;;;2.90;;
35074;SDS011;21260;34.984;32.490;2023-04-22T11:48:03;4.90;;;3.00;;
35074;SDS011;21260;34.984;32.490;2023-04-22T11:50:33;5.90;;;2.90;;
35074;SDS011;21260;34.984;32.490;2023-04-22T11:53:23;5.88;;;3.10;;
35074;SDS011;21260;34.984;32.490;2023-04-22T11:55:49;7.63;;;3.30;;
35074;SDS011;21260;34.984;32.490;2023-04-22T11:58:23;5.57;;;3.07;;
35074;SDS011;21260;34.984;32.490;2023-04-22T12:00:52;8.70;;;3.25;;
35074;SDS011;21260;34.984;32.490;2023-04-22T12:03:25;7.20;;;3.47;;
35074;SDS011;21260;34.984;32.490;2023-04-22T12:05:54;5.97;;;3.20;;
35074;SDS011;21260;34.984;32.490;2023-04-22T12:08:31;4.93;;;3.30;;
35074;SDS011;21260;34.984;32.490;2023-04-22T12:11:07;7.45;;;3.47;;
35074;SDS011;21260;34.984;32.490;2023-04-22T12:16:19;6.47;;;3.10;;
35074;SDS011;21260;34.984;32.490;2023-04-22T12:21:19;7.40;;;3.60;;
35074;SDS011;21260;34.984;32.490;2023-04-22T12:23:52;5.70;;;3.15;;
35074;SDS011;21260;34.984;32.490;2023-04-22T12:26:23;5.57;;;3.20;;
35074;SDS011;21260;34.984;32.490;2023-04-22T12:28:52;6.28;;;3.35;;
35074;SDS011;21260;34.984;32.490;2023-04-22T12:31:19;4.50;;;3.10;;
35074;SDS011;21260;34.984;32.490;2023-04-22T12:33:45;3.88;;;2.90;;
35074;SDS011;21260;34.984;32.490;2023-04-22T12:36:12;6.68;;;3.20;;
35074;SDS011;21260;34.984;32.490;2023-04-22T12:38:38;6.22;;;3.30;;
35074;SDS011;21260;34.984;32.490;2023-04-22T12:41:05;5.47;;;3.10;;
35074;SDS011;21260;34.984;32.490;2023-04-22T12:43:33;5.68;;;3.10;;
35074;SDS011;21260;34.984;32.490;2023-04-22T12:46:02;5.93;;;3.20;;
35074;SDS011;21260;34.984;32.490;2023-04-22T12:48:30;4.32;;;2.83;;
35074;SDS011;21260;34.984;32.490;2023-04-22T12:50:57;6.20;;;3.22;;
35074;SDS011;21260;34.984;32.490;2023-04-22T12:53:25;7.15;;;3.30;;
35074;SDS011;21260;34.984;32.490;2023-04-22T12:55:52;5.18;;;3.22;;
35074;SDS011;21260;34.984;32.490;2023-04-22T12:58:19;7.35;;;3.05;;
35074;SDS011;21260;34.984;32.490;2023-04-22T13:00:45;5.78;;;2.97;;
35074;SDS011;21260;34.984;32.490;2023-04-22T13:03:11;4.80;;;2.95;;
35074;SDS011;21260;34.984;32.490;2023-04-22T13:05:38;4.77;;;3.07;;
35074;SDS011;21260;34.984;32.490;2023-04-22T13:08:04;6.50;;;3.58;;
35074;SDS011;21260;34.984;32.490;2023-04-22T13:10:30;7.07;;;3.28;;
35074;SDS011;21260;34.984;32.490;2023-04-22T13:12:57;7.95;;;3.30;;
35074;SDS011;21260;34.984;32.490;2023-04-22T13:15:23;6.65;;;3.70;;
35074;SDS011;21260;34.984;32.490;2023-04-22T13:17:51;6.70;;;3.22;;
35074;SDS011;21260;34.984;32.490;2023-04-22T13:20:17;7.43;;;3.43;;
35074;SDS011;21260;34.984;32.490;2023-04-22T13:22:44;4.78;;;3.00;;
35074;SDS011;21260;34.984;32.490;2023-04-22T13:25:12;8.02;;;3.58;;
35074;SDS011;21260;34.984;32.490;2023-04-22T13:27:38;6.88;;;3.25;;
35074;SDS011;21260;34.984;32.490;2023-04-22T13:30:05;5.20;;;3.20;;
35074;SDS011;21260;34.984;32.490;2023-04-22T13:32:33;6.55;;;3.75;;
35074;SDS011;21260;34.984;32.490;2023-04-22T13:34:59;6.82;;;3.40;;
35074;SDS011;21260;34.984;32.490;2023-04-22T13:37:25;7.05;;;3.53;;
35074;SDS011;21260;34.984;32.490;2023-04-22T13:39:52;5.75;;;3.47;;
35074;SDS011;21260;34.984;32.490;2023-04-22T13:42:18;8.32;;;3.95;;
35074;SDS011;21260;34.984;32.490;2023-04-22T13:44:45;6.28;;;3.55;;
35074;SDS011;21260;34.984;32.490;2023-04-22T13:47:11;7.85;;;3.47;;
35074;SDS011;21260;34.984;32.490;2023-04-22T13:49:37;7.25;;;3.50;;
35074;SDS011;21260;34.984;32.490;2023-04-22T13:52:03;6.78;;;3.75;;
35074;SDS011;21260;34.984;32.490;2023-04-22T13:54:30;7.87;;;3.80;;
35074;SDS011;21260;34.984;32.490;2023-04-22T13:56:56;8.75;;;3.88;;
35074;SDS011;21260;34.984;32.490;2023-04-22T13:59:22;6.28;;;3.90;;
35074;SDS011;21260;34.984;32.490;2023-04-22T14:01:48;8.13;;;3.83;;
35074;SDS011;21260;34.984;32.490;2023-04-22T14:04:15;8.83;;;3.90;;
35074;SDS011;21260;34.984;32.490;2023-04-22T14:06:41;7.88;;;4.13;;
35074;SDS011;21260;34.984;32.490;2023-04-22T14:09:08;8.27;;;3.60;;
35074;SDS011;21260;34.984;32.490;2023-04-22T14:11:34;6.30;;;3.33;;
35074;SDS011;21260;34.984;32.490;2023-04-22T14:14:00;7.72;;;3.38;;
35074;SDS011;21260;34.984;32.490;2023-04-22T14:16:26;4.50;;;3.05;;
35074;SDS011;21260;34.984;32.490;2023-04-22T14:18:53;4.65;;;3.10;;
35074;SDS011;21260;34.984;32.490;2023-04-22T14:21:20;4.38;;;2.80;;
35074;SDS011;21260;34.984;32.490;2023-04-22T14:23:46;6.53;;;2.72;;
35074;SDS011;21260;34.984;32.490;2023-04-22T14:26:12;4.40;;;2.60;;
35074;SDS011;21260;34.984;32.490;2023-04-22T14:28:38;4.57;;;2.83;;
35074;SDS011;21260;34.984;32.490;2023-04-22T14:31:06;4.35;;;2.72;;
35074;SDS011;21260;34.984;32.490;2023-04-22T14:33:33;4.80;;;2.70;;
35074;SDS011;21260;34.984;32.490;2023-04-22T14:35:59;5.40;;;2.83;;
35074;SDS011;21260;34.984;32.490;2023-04-22T14:38:25;5.00;;;2.80;;
35074;SDS011;21260;34.984;32.490;2023-04-22T14:40:52;4.55;;;3.00;;
35074;SDS011;21260;34.984;32.490;2023-04-22T14:43:18;6.25;;;3.35;;
35074;SDS011;21260;34.984;32.490;2023-04-22T14:45:46;6.55;;;3.40;;
35074;SDS011;21260;34.984;32.490;2023-04-22T14:48:12;5.22;;;3.15;;
35074;SDS011;21260;34.984;32.490;2023-04-22T14:50:39;5.83;;;3.10;;
35074;SDS011;21260;34.984;32.490;2023-04-22T14:53:07;7.38;;;3.22;;
35074;SDS011;21260;34.984;32.490;2023-04-22T14:55:35;6.65;;;3.25;;
35074;SDS011;21260;34.984;32.490;2023-04-22T14:58:02;7.28;;;3.08;;
35074;SDS011;21260;34.984;32.490;2023-04-22T15:00:28;8.00;;;4.20;;
35074;SDS011;21260;34.984;32.490;2023-04-22T15:02:55;6.82;;;3.28;;
35074;SDS011;21260;34.984;32.490;2023-04-22T15:05:21;6.17;;;3.30;;
35074;SDS011;21260;34.984;32.490;2023-04-22T15:07:48;7.82;;;3.30;;
35074;SDS011;21260;34.984;32.490;2023-04-22T15:10:15;7.20;;;3.45;;